createdAt,value
2022-11-20T00:02:49.778Z,49.08
2022-11-20T00:05:44.663Z,49.11
2022-11-20T00:08:39.523Z,49.02
2022-11-20T00:11:35.372Z,49.10
2022-11-20T00:14:30.109Z,49.11
2022-11-20T00:17:24.981Z,49.04
2022-11-20T00:20:20.723Z,49.04
2022-11-20T00:23:15.505Z,49.07
2022-11-20T00:26:12.095Z,49.07
2022-11-20T00:29:07.271Z,49.06
2022-11-20T00:32:02.170Z,49.08
2022-11-20T00:34:56.899Z,49.10
2022-11-20T00:37:51.789Z,49.04
2022-11-20T00:40:49.869Z,48.98
2022-11-20T00:43:48.622Z,48.99
2022-11-20T00:46:43.425Z,49.03
2022-11-20T00:49:38.163Z,48.94
2022-11-20T00:52:32.987Z,48.89
2022-11-20T00:55:27.774Z,48.92
2022-11-20T00:58:22.699Z,48.95
2022-11-20T01:01:19.444Z,48.99
2022-11-20T01:04:14.562Z,48.89
2022-11-20T01:07:09.425Z,48.87
2022-11-20T01:10:04.564Z,48.88
2022-11-20T01:13:13.060Z,48.83
2022-11-20T01:16:11.104Z,48.92
2022-11-20T01:19:08.199Z,48.90
2022-11-20T01:22:02.926Z,48.88
2022-11-20T01:24:57.849Z,48.85
2022-11-20T01:27:52.587Z,48.86
2022-11-20T01:30:47.408Z,48.86
2022-11-20T01:33:42.423Z,48.85
2022-11-20T01:36:37.901Z,48.77
2022-11-20T01:39:32.903Z,48.80
2022-11-20T01:42:45.540Z,48.70
2022-11-20T01:46:17.531Z,48.82
2022-11-20T01:49:17.032Z,48.81
2022-11-20T01:52:17.228Z,48.77
2022-11-20T01:55:15.605Z,48.68
2022-11-20T01:58:10.302Z,48.65
2022-11-20T02:01:05.791Z,48.68
2022-11-20T02:04:00.668Z,48.74
2022-11-20T02:06:57.664Z,48.71
2022-11-20T02:09:57.398Z,48.64
2022-11-20T02:13:11.312Z,48.58
2022-11-20T02:16:06.595Z,48.76
2022-11-20T02:19:03.560Z,48.71
2022-11-20T02:22:04.659Z,48.75
2022-11-20T02:24:59.443Z,48.69
2022-11-20T02:27:54.194Z,48.74
2022-11-20T02:30:48.931Z,48.70
2022-11-20T02:33:43.765Z,48.70
2022-11-20T02:36:38.920Z,48.60
2022-11-20T02:39:33.723Z,48.62
2022-11-20T02:42:28.435Z,48.66
2022-11-20T02:45:23.760Z,48.63
2022-11-20T02:48:18.505Z,48.56
2022-11-20T02:51:13.572Z,48.55
2022-11-20T02:54:08.646Z,48.57
2022-11-20T02:57:03.442Z,48.60
2022-11-20T02:59:58.155Z,48.53
2022-11-20T03:02:52.948Z,48.53
2022-11-20T03:05:47.724Z,48.56
2022-11-20T03:08:42.527Z,48.58
2022-11-20T03:11:37.420Z,48.49
2022-11-20T03:14:32.399Z,48.49
2022-11-20T03:17:27.276Z,48.34
2022-11-20T03:20:22.308Z,48.52
2022-11-20T03:23:17.066Z,48.52
2022-11-20T03:26:17.702Z,48.59
2022-11-20T03:29:12.445Z,48.53
2022-11-20T03:32:07.612Z,48.53
2022-11-20T03:35:02.346Z,48.54
2022-11-20T03:37:57.032Z,48.46
2022-11-20T03:40:51.702Z,48.54
2022-11-20T03:43:48.836Z,48.56
2022-11-20T03:46:43.966Z,48.53
2022-11-20T03:49:38.713Z,48.57
2022-11-20T03:52:33.769Z,48.47
2022-11-20T03:55:28.588Z,48.56
2022-11-20T03:58:23.240Z,48.41
2022-11-20T04:01:19.998Z,48.45
2022-11-20T04:04:14.871Z,48.42
2022-11-20T04:07:10.196Z,48.33
2022-11-20T04:10:05.089Z,48.35
2022-11-20T04:13:00.104Z,48.34
2022-11-20T04:15:55.064Z,48.42
2022-11-20T04:18:53.374Z,48.45
2022-11-20T04:21:48.262Z,48.45
2022-11-20T04:24:43.448Z,48.35
2022-11-20T04:27:38.275Z,48.38
2022-11-20T04:30:32.985Z,48.36
2022-11-20T04:33:30.045Z,48.43
2022-11-20T04:36:28.912Z,48.39
2022-11-20T04:39:22.288Z,48.49
2022-11-20T04:42:32.628Z,48.50
2022-11-20T04:45:27.499Z,48.41
2022-11-20T04:48:22.653Z,48.38
2022-11-20T04:51:17.440Z,48.38
2022-11-20T04:54:12.277Z,48.35
2022-11-20T04:57:11.435Z,48.37
2022-11-20T05:00:12.451Z,48.31
2022-11-20T05:03:07.439Z,48.33
2022-11-20T05:06:03.677Z,48.40
2022-11-20T05:08:58.544Z,48.33
2022-11-20T05:11:53.316Z,48.27
2022-11-20T05:14:48.344Z,48.40
2022-11-20T05:17:43.539Z,48.40
2022-11-20T05:20:38.515Z,48.39
2022-11-20T05:23:34.225Z,48.40
2022-11-20T05:26:29.151Z,48.39
2022-11-20T05:29:23.971Z,48.44
2022-11-20T05:32:18.861Z,48.41
2022-11-20T05:35:14.267Z,48.41
2022-11-20T05:38:09.429Z,48.35
2022-11-20T05:41:11.007Z,48.31
2022-11-20T05:44:05.950Z,48.38
2022-11-20T05:47:00.581Z,48.35
2022-11-20T05:49:55.787Z,48.31
2022-11-20T05:52:50.679Z,48.34
2022-11-20T05:55:45.703Z,48.31
2022-11-20T05:58:40.580Z,48.25
2022-11-20T06:01:36.975Z,48.30
2022-11-20T06:04:31.648Z,48.28
2022-11-20T06:07:26.415Z,48.33
2022-11-20T06:10:21.749Z,48.29
2022-11-20T06:13:16.516Z,48.28
2022-11-20T06:16:12.188Z,48.25
2022-11-20T06:19:07.109Z,48.26
2022-11-20T06:22:01.799Z,48.24
2022-11-20T06:24:56.550Z,48.23
2022-11-20T06:27:51.406Z,48.21
2022-11-20T06:30:50.300Z,48.18
2022-11-20T06:33:45.502Z,48.22
2022-11-20T06:36:40.283Z,48.23
2022-11-20T06:39:35.112Z,48.14
2022-11-20T06:42:29.956Z,48.16
2022-11-20T06:45:24.725Z,48.24
2022-11-20T06:48:19.469Z,48.25
2022-11-20T06:51:14.279Z,48.27
2022-11-20T06:54:09.680Z,48.23
2022-11-20T06:57:04.976Z,48.21
2022-11-20T06:59:59.910Z,48.18
2022-11-20T07:02:54.646Z,48.24
2022-11-20T07:05:49.435Z,48.29
2022-11-20T07:08:44.354Z,48.21
2022-11-20T07:11:39.130Z,48.26
2022-11-20T07:14:33.828Z,48.21
2022-11-20T07:17:28.566Z,48.22
2022-11-20T07:24:20.533Z,48.21
2022-11-20T07:27:11.053Z,48.23
2022-11-20T07:30:01.530Z,48.18
2022-11-20T07:32:54.774Z,47.93
2022-11-20T07:35:45.784Z,48.07
2022-11-20T07:38:36.307Z,48.15
2022-11-20T07:41:28.077Z,48.14
2022-11-20T07:44:19.567Z,48.19
2022-11-20T07:47:10.487Z,47.93
2022-11-20T07:50:01.101Z,47.88
2022-11-20T07:52:52.652Z,47.89
2022-11-20T07:55:43.203Z,47.93
2022-11-20T07:58:34.845Z,47.96
2022-11-20T08:01:25.748Z,47.95
2022-11-20T08:04:16.659Z,47.89
2022-11-20T08:07:07.402Z,47.80
2022-11-20T08:09:58.530Z,47.85
2022-11-20T08:13:08.565Z,47.82
2022-11-20T08:15:59.501Z,47.80
2022-11-20T08:18:50.343Z,47.86
2022-11-20T08:21:41.167Z,47.69
2022-11-20T08:24:31.770Z,47.67
2022-11-20T08:27:22.365Z,47.98
2022-11-20T08:30:16.328Z,48.06
2022-11-20T08:33:08.927Z,48.32
2022-11-20T08:36:02.822Z,48.44
2022-11-20T08:38:54.842Z,48.45
2022-11-20T08:41:45.527Z,48.46
2022-11-20T08:44:36.253Z,48.31
2022-11-20T08:47:26.939Z,48.45
2022-11-20T08:50:18.249Z,48.47
2022-11-20T08:53:09.009Z,48.50
2022-11-20T08:56:00.487Z,48.53
2022-11-20T08:59:20.254Z,48.61
2022-11-20T09:02:03.956Z,48.60
2022-11-20T09:04:54.589Z,48.75
2022-11-20T09:07:45.649Z,48.67
2022-11-20T09:10:40.105Z,48.67
2022-11-20T09:13:31.243Z,48.62
2022-11-20T09:16:21.988Z,48.27
2022-11-20T09:19:34.619Z,48.79
2022-11-20T09:22:23.487Z,48.82
2022-11-20T09:25:14.512Z,48.83
2022-11-20T09:28:05.537Z,48.89
2022-11-20T09:30:56.277Z,48.88
2022-11-20T09:33:46.868Z,48.95
2022-11-20T09:36:37.849Z,49.03
2022-11-20T09:39:28.558Z,49.16
2022-11-20T09:42:35.817Z,49.19
2022-11-20T09:45:35.198Z,49.27
2022-11-20T09:49:00.130Z,49.36
2022-11-20T09:51:58.517Z,49.45
2022-11-20T09:54:49.238Z,49.56
2022-11-20T09:57:42.078Z,49.70
2022-11-20T10:00:33.254Z,49.89
2022-11-20T10:03:27.769Z,50.02
2022-11-20T10:06:22.273Z,50.05
2022-11-20T10:09:24.368Z,50.13
2022-11-20T10:12:19.047Z,50.18
2022-11-20T10:15:18.514Z,50.40
2022-11-20T10:18:24.384Z,50.58
2022-11-20T10:21:21.145Z,50.68
2022-11-20T10:24:29.049Z,50.74
2022-11-20T10:27:43.412Z,50.82
2022-11-20T10:30:36.195Z,50.81
2022-11-20T10:33:29.082Z,50.91
2022-11-20T10:36:28.376Z,50.93
2022-11-20T10:39:22.317Z,50.95
2022-11-20T10:42:15.579Z,50.97
2022-11-20T10:45:16.666Z,51.00
2022-11-20T10:48:17.140Z,51.00
2022-11-20T10:51:16.576Z,51.00
2022-11-20T10:54:18.102Z,51.06
2022-11-20T10:57:15.726Z,51.06
2022-11-20T11:00:09.377Z,51.04
2022-11-20T11:03:03.386Z,51.07
2022-11-20T11:05:56.597Z,51.07
2022-11-20T11:08:47.810Z,51.09
2022-11-20T11:11:38.639Z,51.06
2022-11-20T11:14:29.408Z,51.08
2022-11-20T11:17:30.962Z,51.10
2022-11-20T11:20:22.695Z,51.08
2022-11-20T11:23:31.719Z,51.07
2022-11-20T11:26:24.038Z,51.08
2022-11-20T11:29:21.185Z,51.08
2022-11-20T11:32:15.915Z,51.09
2022-11-20T11:35:19.040Z,51.10
2022-11-20T11:38:15.376Z,51.12
2022-11-20T11:41:06.171Z,51.11
2022-11-20T11:44:19.579Z,51.10
2022-11-20T11:47:12.547Z,51.07
2022-11-20T11:50:17.851Z,51.03
2022-11-20T11:53:14.228Z,51.02
2022-11-20T11:56:08.905Z,51.02
2022-11-20T11:59:01.114Z,51.01
2022-11-20T12:01:55.586Z,51.01
2022-11-20T12:04:50.558Z,51.00
2022-11-20T12:07:47.550Z,50.98
2022-11-20T12:10:47.609Z,50.99
2022-11-20T12:13:45.603Z,50.95
2022-11-20T12:16:38.998Z,50.96
2022-11-20T12:19:29.606Z,50.98
2022-11-20T12:22:29.371Z,50.97
2022-11-20T12:25:22.786Z,50.94
2022-11-20T12:28:40.153Z,50.97
2022-11-20T12:31:46.948Z,50.96
2022-11-20T12:34:51.881Z,50.98
2022-11-20T12:37:49.117Z,50.98
2022-11-20T12:40:44.037Z,50.96
2022-11-20T12:43:55.220Z,50.93
2022-11-20T12:46:47.364Z,50.95
2022-11-20T12:49:39.976Z,50.94
2022-11-20T12:52:42.205Z,50.98
2022-11-20T12:55:45.231Z,50.98
2022-11-20T12:58:40.789Z,50.99
2022-11-20T13:01:43.033Z,51.03
2022-11-20T13:05:10.057Z,51.06
2022-11-20T13:08:00.604Z,51.03
2022-11-20T13:10:55.427Z,51.07
2022-11-20T13:14:05.721Z,51.09
2022-11-20T13:17:03.421Z,51.12
2022-11-20T13:19:59.144Z,51.11
2022-11-20T13:22:52.145Z,51.13
2022-11-20T13:25:42.818Z,51.10
2022-11-20T13:28:33.876Z,51.07
2022-11-20T13:31:35.550Z,51.04
2022-11-20T13:34:27.855Z,51.03
2022-11-20T13:37:29.871Z,50.92
2022-11-20T13:40:25.080Z,50.26
2022-11-20T13:43:35.866Z,49.80
2022-11-20T13:46:37.389Z,49.82
2022-11-20T13:49:32.559Z,50.06
2022-11-20T13:52:46.231Z,50.12
2022-11-20T13:55:39.106Z,50.12
2022-11-20T13:58:41.482Z,50.21
2022-11-20T14:01:32.672Z,50.34
2022-11-20T14:04:28.445Z,50.51
2022-11-20T14:07:19.836Z,50.68
2022-11-20T14:10:27.078Z,50.74
2022-11-20T14:13:22.424Z,50.85
2022-11-20T14:16:13.380Z,51.07
2022-11-20T14:19:30.647Z,51.27
2022-11-20T14:22:23.064Z,51.34
2022-11-20T14:25:23.768Z,51.50
2022-11-20T14:28:21.892Z,51.55
2022-11-20T14:31:18.913Z,51.56
2022-11-20T14:34:16.519Z,51.57
2022-11-20T14:37:16.394Z,51.59
2022-11-20T14:40:29.325Z,51.65
2022-11-20T14:43:23.797Z,51.70
2022-11-20T14:46:14.818Z,51.79
2022-11-20T14:49:05.752Z,51.96
2022-11-20T14:52:03.066Z,52.11
2022-11-20T14:54:54.971Z,52.23
2022-11-20T14:57:46.178Z,52.39
2022-11-20T15:00:37.659Z,52.39
2022-11-20T15:03:35.444Z,52.59
2022-11-20T15:06:29.849Z,52.54
2022-11-20T15:09:20.496Z,52.56
2022-11-20T15:12:19.100Z,52.56
2022-11-20T15:15:12.610Z,52.44
2022-11-20T15:18:03.266Z,52.46
2022-11-20T15:20:53.856Z,52.46
2022-11-20T15:23:44.356Z,52.42
2022-11-20T15:26:34.887Z,52.41
2022-11-20T15:29:25.474Z,52.42
2022-11-20T15:32:16.046Z,52.42
2022-11-20T15:35:09.275Z,52.48
2022-11-20T15:37:59.959Z,52.53
2022-11-20T15:40:50.629Z,52.50
2022-11-20T15:43:41.303Z,52.44
2022-11-20T15:46:37.927Z,52.31
2022-11-20T15:49:28.745Z,52.10
2022-11-20T15:52:19.437Z,51.79
2022-11-20T15:55:12.920Z,51.77
2022-11-20T15:58:03.546Z,51.28
2022-11-20T16:00:54.293Z,50.72
2022-11-20T16:03:45.231Z,50.41
2022-11-20T16:06:35.801Z,50.11
2022-11-20T16:09:26.425Z,49.94
2022-11-20T16:12:37.060Z,49.79
2022-11-20T16:15:46.063Z,50.09
2022-11-20T16:18:36.662Z,50.39
2022-11-20T16:21:31.289Z,50.73
2022-11-20T16:24:22.497Z,50.76
2022-11-20T16:27:13.611Z,50.73
2022-11-20T16:30:12.108Z,51.02
2022-11-20T16:33:02.976Z,51.20
2022-11-20T16:35:53.630Z,51.38
2022-11-20T16:38:44.206Z,51.57
2022-11-20T16:41:35.999Z,51.71
2022-11-20T16:44:27.059Z,51.87
2022-11-20T16:47:17.925Z,52.09
2022-11-20T16:50:10.864Z,52.25
2022-11-20T16:53:01.579Z,52.38
2022-11-20T16:55:52.417Z,52.47
2022-11-20T16:58:43.038Z,52.51
2022-11-20T17:01:35.518Z,52.51
2022-11-20T17:04:26.695Z,52.51
2022-11-20T17:07:17.700Z,52.48
2022-11-20T17:10:10.121Z,52.49
2022-11-20T17:13:00.736Z,52.47
2022-11-20T17:15:51.864Z,52.44
2022-11-20T17:18:42.443Z,52.40
2022-11-20T17:21:35.457Z,52.34
2022-11-20T17:24:31.652Z,52.33
2022-11-20T17:27:22.773Z,52.43
2022-11-20T17:30:14.556Z,52.49
2022-11-20T17:33:05.298Z,52.54
2022-11-20T17:35:56.515Z,52.53
2022-11-20T17:38:47.376Z,52.48
2022-11-20T17:41:37.980Z,52.42
2022-11-20T17:44:28.584Z,52.35
2022-11-20T17:47:19.300Z,52.30
2022-11-20T17:50:11.519Z,52.24
2022-11-20T17:53:02.540Z,52.19
2022-11-20T17:56:16.147Z,52.11
2022-11-20T17:59:07.564Z,52.05
2022-11-20T18:02:03.290Z,52.02
2022-11-20T18:04:54.773Z,51.96
2022-11-20T18:07:45.570Z,51.94
2022-11-20T18:10:36.784Z,51.90
2022-11-20T18:13:48.067Z,51.86
2022-11-20T18:16:42.305Z,51.79
2022-11-20T18:19:38.741Z,51.75
2022-11-20T18:22:31.723Z,51.70
2022-11-20T18:25:22.346Z,51.65
2022-11-20T18:28:13.386Z,51.58
2022-11-20T18:31:07.479Z,51.58
2022-11-20T18:33:58.472Z,51.57
2022-11-20T18:36:49.120Z,51.48
2022-11-20T18:39:39.681Z,51.44
2022-11-20T18:42:49.249Z,51.44
2022-11-20T18:45:39.816Z,51.41
2022-11-20T18:48:31.808Z,51.36
2022-11-20T18:51:22.546Z,51.36
2022-11-20T18:54:13.295Z,51.27
2022-11-20T18:57:05.039Z,51.25
2022-11-20T18:59:55.766Z,51.20
2022-11-20T19:02:47.969Z,51.21
2022-11-20T19:05:39.515Z,51.17
2022-11-20T19:08:30.147Z,51.18
2022-11-20T19:11:20.785Z,51.16
2022-11-20T19:14:11.808Z,51.11
2022-11-20T19:17:02.414Z,51.05
2022-11-20T19:19:54.311Z,50.99
2022-11-20T19:22:45.004Z,50.98
2022-11-20T19:25:38.337Z,51.00
2022-11-20T19:28:31.037Z,50.95
2022-11-20T19:31:24.705Z,50.97
2022-11-20T19:34:16.201Z,51.01
2022-11-20T19:37:06.804Z,50.95
2022-11-20T19:39:59.040Z,50.84
2022-11-20T19:42:49.730Z,50.80
2022-11-20T19:45:40.777Z,50.78
2022-11-20T19:48:32.714Z,50.79
2022-11-20T19:51:26.721Z,50.80
2022-11-20T19:54:18.141Z,50.75
2022-11-20T19:57:08.818Z,50.75
2022-11-20T19:59:59.467Z,50.62
2022-11-20T20:02:50.011Z,50.67
2022-11-20T20:05:41.023Z,50.65
2022-11-20T20:08:31.950Z,50.59
2022-11-20T20:11:24.009Z,50.58
2022-11-20T20:14:16.042Z,50.64
2022-11-20T20:17:06.832Z,50.50
2022-11-20T20:19:57.655Z,50.50
2022-11-20T20:22:48.294Z,50.57
2022-11-20T20:25:38.840Z,50.40
2022-11-20T20:28:30.326Z,50.54
2022-11-20T20:31:23.104Z,50.50
2022-11-20T20:34:13.839Z,50.34
2022-11-20T20:37:04.849Z,50.41
2022-11-20T20:39:55.525Z,50.39
2022-11-20T20:42:46.200Z,50.34
2022-11-20T20:45:37.074Z,50.35
2022-11-20T20:48:28.398Z,50.31
2022-11-20T20:51:18.948Z,50.27
2022-11-20T20:54:09.567Z,50.29
2022-11-20T20:57:00.114Z,50.27
2022-11-20T20:59:51.956Z,50.24
2022-11-20T21:02:43.065Z,50.24
2022-11-20T21:05:33.824Z,50.12
2022-11-20T21:08:24.935Z,50.16
2022-11-20T21:11:17.505Z,50.22
2022-11-20T21:14:08.080Z,50.20
2022-11-20T21:16:59.097Z,50.17
2022-11-20T21:19:49.702Z,50.17
2022-11-20T21:22:40.434Z,50.18
2022-11-20T21:25:31.485Z,50.16
2022-11-20T21:28:22.490Z,50.14
2022-11-20T21:31:14.716Z,50.05
2022-11-20T21:34:06.737Z,49.89
2022-11-20T21:36:57.976Z,49.91
2022-11-20T21:39:51.297Z,49.99
2022-11-20T21:42:41.904Z,49.92
2022-11-20T21:45:32.638Z,49.95
2022-11-20T21:48:23.406Z,49.95
2022-11-20T21:51:15.178Z,49.90
2022-11-20T21:54:05.967Z,49.98
2022-11-20T21:56:56.887Z,50.02
2022-11-20T21:59:47.537Z,49.99
2022-11-20T22:02:40.016Z,50.06
2022-11-20T22:05:30.684Z,50.11
2022-11-20T22:08:21.364Z,50.12
2022-11-20T22:11:13.936Z,50.18
2022-11-20T22:14:23.941Z,50.28
2022-11-20T22:17:15.215Z,50.23
2022-11-20T22:20:09.539Z,50.22
2022-11-20T22:23:00.348Z,50.26
2022-11-20T22:25:50.863Z,50.24
2022-11-20T22:28:41.666Z,50.19
2022-11-20T22:31:32.715Z,50.11
2022-11-20T22:34:23.667Z,50.05
2022-11-20T22:37:15.152Z,50.07
2022-11-20T22:40:09.376Z,49.91
2022-11-20T22:42:59.960Z,49.85
2022-11-20T22:45:50.640Z,49.87
2022-11-20T22:48:42.409Z,49.90
2022-11-20T22:51:34.600Z,49.87
2022-11-20T22:54:25.460Z,49.80
2022-11-20T22:57:16.526Z,49.79
2022-11-20T23:00:11.925Z,49.76
2022-11-20T23:03:02.987Z,49.73
2022-11-20T23:05:53.639Z,49.77
2022-11-20T23:08:44.287Z,49.80
2022-11-20T23:11:35.277Z,49.73
2022-11-20T23:14:27.989Z,49.63
2022-11-20T23:17:18.751Z,49.45
2022-11-20T23:20:13.048Z,49.34
2022-11-20T23:23:03.695Z,48.99
2022-11-20T23:25:54.398Z,48.95
2022-11-20T23:28:45.543Z,48.76
2022-11-20T23:31:36.560Z,48.44
2022-11-20T23:34:27.430Z,48.34
2022-11-20T23:37:18.218Z,48.36
2022-11-20T23:40:11.935Z,48.30
2022-11-20T23:43:14.803Z,48.14
2022-11-20T23:46:05.685Z,47.97
2022-11-20T23:48:56.226Z,47.90
2022-11-20T23:51:46.902Z,48.00
2022-11-20T23:54:37.691Z,47.95
2022-11-20T23:57:28.297Z,47.81
